sensor_id;sensor_type;location;lat;lon;timestamp;temperature;humidity
10231;DHT22;62604;49.432;8.680;2022-09-01T00:01:45;18.40;94.10
10231;DHT22;62604;49.432;8.680;2022-09-01T00:04:16;18.30;94.20
10231;DHT22;62604;49.432;8.680;2022-09-01T00:06:44;18.30;94.20
10231;DHT22;62604;49.432;8.680;2022-09-01T00:09:15;18.30;94.60
10231;DHT22;62604;49.432;8.680;2022-09-01T00:11:44;18.30;94.60
10231;DHT22;62604;49.432;8.680;2022-09-01T00:14:12;18.30;94.90
10231;DHT22;62604;49.432;8.680;2022-09-01T00:16:40;18.30;94.60
10231;DHT22;62604;49.432;8.680;2022-09-01T00:19:07;18.30;94.70
10231;DHT22;62604;49.432;8.680;2022-09-01T00:21:38;18.30;94.70
10231;DHT22;62604;49.432;8.680;2022-09-01T00:24:06;18.20;95.10
10231;DHT22;62604;49.432;8.680;2022-09-01T00:26:33;18.20;95.20
10231;DHT22;62604;49.432;8.680;2022-09-01T00:29:00;18.20;95.40
10231;DHT22;62604;49.432;8.680;2022-09-01T00:31:28;18.20;95.70
10231;DHT22;62604;49.432;8.680;2022-09-01T00:33:55;18.20;96.00
10231;DHT22;62604;49.432;8.680;2022-09-01T00:36:22;18.20;96.30
10231;DHT22;62604;49.432;8.680;2022-09-01T00:38:51;18.10;96.50
10231;DHT22;62604;49.432;8.680;2022-09-01T00:41:20;18.10;96.40
10231;DHT22;62604;49.432;8.680;2022-09-01T00:43:50;18.20;96.70
10231;DHT22;62604;49.432;8.680;2022-09-01T00:46:20;18.10;96.90
10231;DHT22;62604;49.432;8.680;2022-09-01T00:48:52;18.10;97.30
10231;DHT22;62604;49.432;8.680;2022-09-01T00:51:20;18.10;97.00
10231;DHT22;62604;49.432;8.680;2022-09-01T00:53:47;18.10;97.20
10231;DHT22;62604;49.432;8.680;2022-09-01T00:56:16;18.10;97.30
10231;DHT22;62604;49.432;8.680;2022-09-01T00:58:44;18.00;97.60
10231;DHT22;62604;49.432;8.680;2022-09-01T01:01:11;18.00;98.10
10231;DHT22;62604;49.432;8.680;2022-09-01T01:03:39;18.00;97.80
10231;DHT22;62604;49.432;8.680;2022-09-01T01:06:11;18.00;98.20
10231;DHT22;62604;49.432;8.680;2022-09-01T01:08:42;18.00;98.10
10231;DHT22;62604;49.432;8.680;2022-09-01T01:11:28;18.00;98.40
10231;DHT22;62604;49.432;8.680;2022-09-01T01:13:58;18.00;98.50
10231;DHT22;62604;49.432;8.680;2022-09-01T01:16:30;18.00;98.70
10231;DHT22;62604;49.432;8.680;2022-09-01T01:18:59;18.00;98.50
10231;DHT22;62604;49.432;8.680;2022-09-01T01:21:31;18.00;98.70
10231;DHT22;62604;49.432;8.680;2022-09-01T01:24:25;17.90;98.80
10231;DHT22;62604;49.432;8.680;2022-09-01T01:26:53;17.90;98.70
10231;DHT22;62604;49.432;8.680;2022-09-01T01:29:22;18.00;98.90
10231;DHT22;62604;49.432;8.680;2022-09-01T01:31:50;17.90;98.70
10231;DHT22;62604;49.432;8.680;2022-09-01T01:34:19;17.90;99.00
10231;DHT22;62604;49.432;8.680;2022-09-01T01:36:50;17.90;98.80
10231;DHT22;62604;49.432;8.680;2022-09-01T01:39:20;18.00;98.60
10231;DHT22;62604;49.432;8.680;2022-09-01T01:41:52;18.00;98.60
10231;DHT22;62604;49.432;8.680;2022-09-01T01:44:22;18.00;98.80
10231;DHT22;62604;49.432;8.680;2022-09-01T01:46:54;18.00;99.30
10231;DHT22;62604;49.432;8.680;2022-09-01T01:49:23;18.00;99.30
10231;DHT22;62604;49.432;8.680;2022-09-01T01:51:52;18.00;99.70
10231;DHT22;62604;49.432;8.680;2022-09-01T01:54:21;18.10;99.00
10231;DHT22;62604;49.432;8.680;2022-09-01T01:56:48;18.10;99.50
10231;DHT22;62604;49.432;8.680;2022-09-01T01:59:16;18.10;99.20
10231;DHT22;62604;49.432;8.680;2022-09-01T02:01:44;18.10;99.20
10231;DHT22;62604;49.432;8.680;2022-09-01T02:04:16;18.10;98.80
10231;DHT22;62604;49.432;8.680;2022-09-01T02:06:45;18.10;99.40
10231;DHT22;62604;49.432;8.680;2022-09-01T02:09:19;18.10;99.00
10231;DHT22;62604;49.432;8.680;2022-09-01T02:11:48;18.10;99.10
10231;DHT22;62604;49.432;8.680;2022-09-01T02:14:23;18.00;99.30
10231;DHT22;62604;49.432;8.680;2022-09-01T02:16:50;18.00;99.10
10231;DHT22;62604;49.432;8.680;2022-09-01T02:19:20;18.10;98.50
10231;DHT22;62604;49.432;8.680;2022-09-01T02:21:48;18.10;99.90
10231;DHT22;62604;49.432;8.680;2022-09-01T02:24:19;18.00;99.90
10231;DHT22;62604;49.432;8.680;2022-09-01T02:26:46;17.80;99.90
10231;DHT22;62604;49.432;8.680;2022-09-01T02:29:16;17.90;98.70
10231;DHT22;62604;49.432;8.680;2022-09-01T02:31:47;17.90;99.60
10231;DHT22;62604;49.432;8.680;2022-09-01T02:34:15;17.90;99.90
10231;DHT22;62604;49.432;8.680;2022-09-01T02:36:44;17.60;99.90
10231;DHT22;62604;49.432;8.680;2022-09-01T02:39:14;17.60;99.90
10231;DHT22;62604;49.432;8.680;2022-09-01T02:41:42;17.50;99.90
10231;DHT22;62604;49.432;8.680;2022-09-01T02:44:10;17.60;99.90
10231;DHT22;62604;49.432;8.680;2022-09-01T02:46:38;17.60;99.90
10231;DHT22;62604;49.432;8.680;2022-09-01T02:49:08;17.60;99.90
10231;DHT22;62604;49.432;8.680;2022-09-01T02:51:40;17.70;99.90
10231;DHT22;62604;49.432;8.680;2022-09-01T02:54:08;17.60;99.90
10231;DHT22;62604;49.432;8.680;2022-09-01T02:56:35;17.50;99.90
10231;DHT22;62604;49.432;8.680;2022-09-01T02:59:02;17.40;99.90
10231;DHT22;62604;49.432;8.680;2022-09-01T03:01:31;17.30;99.90
10231;DHT22;62604;49.432;8.680;2022-09-01T03:04:01;17.20;99.90
10231;DHT22;62604;49.432;8.680;2022-09-01T03:06:31;17.10;99.90
10231;DHT22;62604;49.432;8.680;2022-09-01T03:09:03;17.00;99.90
10231;DHT22;62604;49.432;8.680;2022-09-01T03:11:32;17.00;99.90
10231;DHT22;62604;49.432;8.680;2022-09-01T03:14:00;16.90;99.90
10231;DHT22;62604;49.432;8.680;2022-09-01T03:16:28;16.80;99.90
10231;DHT22;62604;49.432;8.680;2022-09-01T03:18:56;16.80;99.90
10231;DHT22;62604;49.432;8.680;2022-09-01T03:21:24;16.90;99.90
10231;DHT22;62604;49.432;8.680;2022-09-01T03:23:52;16.90;99.90
10231;DHT22;62604;49.432;8.680;2022-09-01T03:26:20;16.90;99.90
10231;DHT22;62604;49.432;8.680;2022-09-01T03:28:49;16.80;99.90
10231;DHT22;62604;49.432;8.680;2022-09-01T03:31:17;16.80;99.90
10231;DHT22;62604;49.432;8.680;2022-09-01T03:33:44;16.70;99.90
10231;DHT22;62604;49.432;8.680;2022-09-01T03:36:12;16.70;99.90
10231;DHT22;62604;49.432;8.680;2022-09-01T03:38:43;16.70;99.90
10231;DHT22;62604;49.432;8.680;2022-09-01T03:41:16;16.60;99.90
10231;DHT22;62604;49.432;8.680;2022-09-01T03:43:44;16.60;99.90
10231;DHT22;62604;49.432;8.680;2022-09-01T03:46:11;16.60;99.90
10231;DHT22;62604;49.432;8.680;2022-09-01T03:48:44;16.60;99.90
10231;DHT22;62604;49.432;8.680;2022-09-01T03:51:12;16.50;99.90
10231;DHT22;62604;49.432;8.680;2022-09-01T03:53:39;16.50;99.90
10231;DHT22;62604;49.432;8.680;2022-09-01T03:56:06;16.60;99.90
10231;DHT22;62604;49.432;8.680;2022-09-01T03:58:35;16.70;99.90
10231;DHT22;62604;49.432;8.680;2022-09-01T04:01:03;16.70;99.90
10231;DHT22;62604;49.432;8.680;2022-09-01T04:03:32;16.60;99.90
10231;DHT22;62604;49.432;8.680;2022-09-01T04:06:00;16.50;99.90
10231;DHT22;62604;49.432;8.680;2022-09-01T04:08:28;16.50;99.90
10231;DHT22;62604;49.432;8.680;2022-09-01T04:10:58;16.40;99.90
10231;DHT22;62604;49.432;8.680;2022-09-01T04:13:29;16.30;99.90
10231;DHT22;62604;49.432;8.680;2022-09-01T04:15:58;16.20;99.90
10231;DHT22;62604;49.432;8.680;2022-09-01T04:18:26;16.20;99.90
10231;DHT22;62604;49.432;8.680;2022-09-01T04:20:53;16.20;99.90
10231;DHT22;62604;49.432;8.680;2022-09-01T04:23:23;16.20;99.90
10231;DHT22;62604;49.432;8.680;2022-09-01T04:25:54;16.20;99.90
10231;DHT22;62604;49.432;8.680;2022-09-01T04:28:23;16.20;99.90
10231;DHT22;62604;49.432;8.680;2022-09-01T04:30:52;16.20;99.90
10231;DHT22;62604;49.432;8.680;2022-09-01T04:33:24;16.10;99.90
10231;DHT22;62604;49.432;8.680;2022-09-01T04:35:52;16.10;99.90
10231;DHT22;62604;49.432;8.680;2022-09-01T04:38:23;16.10;99.90
10231;DHT22;62604;49.432;8.680;2022-09-01T04:40:51;16.00;99.90
10231;DHT22;62604;49.432;8.680;2022-09-01T04:43:18;16.00;99.90
10231;DHT22;62604;49.432;8.680;2022-09-01T04:45:46;16.00;99.90
10231;DHT22;62604;49.432;8.680;2022-09-01T04:48:18;16.00;99.90
10231;DHT22;62604;49.432;8.680;2022-09-01T04:50:47;15.90;99.90
10231;DHT22;62604;49.432;8.680;2022-09-01T04:53:17;15.90;99.90
10231;DHT22;62604;49.432;8.680;2022-09-01T04:55:45;15.80;99.90
10231;DHT22;62604;49.432;8.680;2022-09-01T04:58:18;15.90;99.90
10231;DHT22;62604;49.432;8.680;2022-09-01T05:00:48;15.90;99.90
10231;DHT22;62604;49.432;8.680;2022-09-01T05:03:18;15.80;99.90
10231;DHT22;62604;49.432;8.680;2022-09-01T05:05:50;15.80;99.90
10231;DHT22;62604;49.432;8.680;2022-09-01T05:08:20;15.90;99.90
10231;DHT22;62604;49.432;8.680;2022-09-01T05:10:49;15.90;99.90
10231;DHT22;62604;49.432;8.680;2022-09-01T05:13:20;15.90;99.90
10231;DHT22;62604;49.432;8.680;2022-09-01T05:15:59;15.80;99.90
10231;DHT22;62604;49.432;8.680;2022-09-01T05:18:26;15.90;99.90
10231;DHT22;62604;49.432;8.680;2022-09-01T05:20:55;15.90;99.90
10231;DHT22;62604;49.432;8.680;2022-09-01T05:23:23;15.90;99.90
10231;DHT22;62604;49.432;8.680;2022-09-01T05:25:51;16.00;99.90
10231;DHT22;62604;49.432;8.680;2022-09-01T05:28:20;16.00;99.90
10231;DHT22;62604;49.432;8.680;2022-09-01T05:30:50;16.10;99.90
10231;DHT22;62604;49.432;8.680;2022-09-01T05:33:19;16.10;99.90
10231;DHT22;62604;49.432;8.680;2022-09-01T05:35:53;16.10;99.90
10231;DHT22;62604;49.432;8.680;2022-09-01T05:38:22;16.20;99.90
10231;DHT22;62604;49.432;8.680;2022-09-01T05:40:55;16.20;99.90
10231;DHT22;62604;49.432;8.680;2022-09-01T05:43:23;16.30;99.90
10231;DHT22;62604;49.432;8.680;2022-09-01T05:45:52;16.40;99.90
10231;DHT22;62604;49.432;8.680;2022-09-01T05:48:20;16.40;99.90
10231;DHT22;62604;49.432;8.680;2022-09-01T05:50:48;16.50;99.90
10231;DHT22;62604;49.432;8.680;2022-09-01T05:53:17;16.40;99.90
10231;DHT22;62604;49.432;8.680;2022-09-01T05:55:52;16.40;99.90
10231;DHT22;62604;49.432;8.680;2022-09-01T05:58:22;16.50;99.90
10231;DHT22;62604;49.432;8.680;2022-09-01T06:00:51;16.70;99.90
10231;DHT22;62604;49.432;8.680;2022-09-01T06:03:19;16.80;99.90
10231;DHT22;62604;49.432;8.680;2022-09-01T06:05:47;16.90;99.90
10231;DHT22;62604;49.432;8.680;2022-09-01T06:08:18;17.00;99.90
10231;DHT22;62604;49.432;8.680;2022-09-01T06:10:46;17.10;99.90
10231;DHT22;62604;49.432;8.680;2022-09-01T06:13:17;17.30;99.90
10231;DHT22;62604;49.432;8.680;2022-09-01T06:15:46;17.50;99.90
10231;DHT22;62604;49.432;8.680;2022-09-01T06:18:17;17.80;99.90
10231;DHT22;62604;49.432;8.680;2022-09-01T06:20:46;18.10;99.90
10231;DHT22;62604;49.432;8.680;2022-09-01T06:23:15;18.40;99.90
10231;DHT22;62604;49.432;8.680;2022-09-01T06:25:44;18.80;99.90
10231;DHT22;62604;49.432;8.680;2022-09-01T06:28:12;19.30;99.10
10231;DHT22;62604;49.432;8.680;2022-09-01T06:30:41;20.20;95.50
10231;DHT22;62604;49.432;8.680;2022-09-01T06:33:09;21.00;92.40
10231;DHT22;62604;49.432;8.680;2022-09-01T06:35:39;21.20;91.30
10231;DHT22;62604;49.432;8.680;2022-09-01T06:38:07;21.90;90.40
10231;DHT22;62604;49.432;8.680;2022-09-01T06:40:34;22.30;83.60
10231;DHT22;62604;49.432;8.680;2022-09-01T06:43:04;23.00;81.20
10231;DHT22;62604;49.432;8.680;2022-09-01T06:45:37;23.70;76.50
10231;DHT22;62604;49.432;8.680;2022-09-01T06:48:07;24.10;70.40
10231;DHT22;62604;49.432;8.680;2022-09-01T06:50:34;24.40;68.60
10231;DHT22;62604;49.432;8.680;2022-09-01T06:53:02;24.80;65.90
10231;DHT22;62604;49.432;8.680;2022-09-01T06:55:35;25.10;66.90
10231;DHT22;62604;49.432;8.680;2022-09-01T06:58:03;25.30;62.20
10231;DHT22;62604;49.432;8.680;2022-09-01T07:00:32;24.90;62.60
10231;DHT22;62604;49.432;8.680;2022-09-01T07:03:08;23.90;64.30
10231;DHT22;62604;49.432;8.680;2022-09-01T07:05:38;24.10;64.70
10231;DHT22;62604;49.432;8.680;2022-09-01T07:08:06;24.40;63.60
10231;DHT22;62604;49.432;8.680;2022-09-01T07:10:39;24.90;65.10
10231;DHT22;62604;49.432;8.680;2022-09-01T07:13:10;25.80;59.60
10231;DHT22;62604;49.432;8.680;2022-09-01T07:15:46;24.90;59.40
10231;DHT22;62604;49.432;8.680;2022-09-01T07:18:16;24.00;63.80
10231;DHT22;62604;49.432;8.680;2022-09-01T07:20:46;24.00;64.70
10231;DHT22;62604;49.432;8.680;2022-09-01T07:23:14;23.60;64.50
10231;DHT22;62604;49.432;8.680;2022-09-01T07:25:43;22.80;67.80
10231;DHT22;62604;49.432;8.680;2022-09-01T07:28:13;21.90;72.20
10231;DHT22;62604;49.432;8.680;2022-09-01T07:30:42;21.70;74.30
10231;DHT22;62604;49.432;8.680;2022-09-01T07:33:13;22.00;77.30
10231;DHT22;62604;49.432;8.680;2022-09-01T07:35:42;21.90;76.10
10231;DHT22;62604;49.432;8.680;2022-09-01T07:38:09;22.10;78.00
10231;DHT22;62604;49.432;8.680;2022-09-01T07:40:39;22.10;77.00
10231;DHT22;62604;49.432;8.680;2022-09-01T07:43:13;22.20;76.20
10231;DHT22;62604;49.432;8.680;2022-09-01T07:45:43;21.70;76.40
10231;DHT22;62604;49.432;8.680;2022-09-01T07:48:15;22.30;76.30
10231;DHT22;62604;49.432;8.680;2022-09-01T07:50:48;23.40;70.70
10231;DHT22;62604;49.432;8.680;2022-09-01T07:53:20;23.70;67.90
10231;DHT22;62604;49.432;8.680;2022-09-01T07:55:48;23.80;65.20
10231;DHT22;62604;49.432;8.680;2022-09-01T07:58:18;24.30;64.90
10231;DHT22;62604;49.432;8.680;2022-09-01T08:00:47;24.70;63.60
10231;DHT22;62604;49.432;8.680;2022-09-01T08:03:16;24.90;60.20
10231;DHT22;62604;49.432;8.680;2022-09-01T08:05:44;24.90;59.40
10231;DHT22;62604;49.432;8.680;2022-09-01T08:08:13;25.10;59.10
10231;DHT22;62604;49.432;8.680;2022-09-01T08:10:41;24.60;58.90
10231;DHT22;62604;49.432;8.680;2022-09-01T08:13:10;23.70;61.80
10231;DHT22;62604;49.432;8.680;2022-09-01T08:15:38;23.80;62.00
10231;DHT22;62604;49.432;8.680;2022-09-01T08:18:05;24.50;61.30
10231;DHT22;62604;49.432;8.680;2022-09-01T08:20:33;25.40;58.60
10231;DHT22;62604;49.432;8.680;2022-09-01T08:23:05;26.50;57.20
10231;DHT22;62604;49.432;8.680;2022-09-01T08:25:35;27.40;53.00
10231;DHT22;62604;49.432;8.680;2022-09-01T08:28:05;26.90;52.40
10231;DHT22;62604;49.432;8.680;2022-09-01T08:30:32;27.10;53.30
10231;DHT22;62604;49.432;8.680;2022-09-01T08:33:01;27.10;50.30
10231;DHT22;62604;49.432;8.680;2022-09-01T08:35:28;26.50;50.60
10231;DHT22;62604;49.432;8.680;2022-09-01T08:37:56;26.20;53.00
10231;DHT22;62604;49.432;8.680;2022-09-01T08:40:24;26.20;53.20
10231;DHT22;62604;49.432;8.680;2022-09-01T08:43:02;25.80;52.70
10231;DHT22;62604;49.432;8.680;2022-09-01T08:45:36;25.70;53.20
10231;DHT22;62604;49.432;8.680;2022-09-01T08:48:13;26.20;51.80
10231;DHT22;62604;49.432;8.680;2022-09-01T08:50:42;26.50;50.80
10231;DHT22;62604;49.432;8.680;2022-09-01T08:53:19;25.50;51.90
10231;DHT22;62604;49.432;8.680;2022-09-01T08:55:50;26.00;52.30
10231;DHT22;62604;49.432;8.680;2022-09-01T08:58:20;26.40;49.60
10231;DHT22;62604;49.432;8.680;2022-09-01T09:00:53;25.50;51.00
10231;DHT22;62604;49.432;8.680;2022-09-01T09:03:26;26.20;50.90
10231;DHT22;62604;49.432;8.680;2022-09-01T09:06:05;26.30;48.30
10231;DHT22;62604;49.432;8.680;2022-09-01T09:08:57;25.50;49.30
10231;DHT22;62604;49.432;8.680;2022-09-01T09:11:51;25.50;51.10
10231;DHT22;62604;49.432;8.680;2022-09-01T09:14:54;26.60;50.20
10231;DHT22;62604;49.432;8.680;2022-09-01T09:17:28;27.20;49.50
10231;DHT22;62604;49.432;8.680;2022-09-01T09:19:56;27.60;47.20
10231;DHT22;62604;49.432;8.680;2022-09-01T09:22:23;26.50;47.00
10231;DHT22;62604;49.432;8.680;2022-09-01T09:24:52;25.30;49.60
10231;DHT22;62604;49.432;8.680;2022-09-01T09:27:25;24.70;51.70
10231;DHT22;62604;49.432;8.680;2022-09-01T09:29:56;24.50;53.20
10231;DHT22;62604;49.432;8.680;2022-09-01T09:32:42;24.60;53.50
10231;DHT22;62604;49.432;8.680;2022-09-01T09:35:19;25.20;51.90
10231;DHT22;62604;49.432;8.680;2022-09-01T09:37:46;26.00;52.00
10231;DHT22;62604;49.432;8.680;2022-09-01T09:40:15;27.50;48.80
10231;DHT22;62604;49.432;8.680;2022-09-01T09:43:01;28.90;42.20
10231;DHT22;62604;49.432;8.680;2022-09-01T09:45:32;29.00;38.70
10231;DHT22;62604;49.432;8.680;2022-09-01T09:48:03;29.70;37.90
10231;DHT22;62604;49.432;8.680;2022-09-01T09:50:33;29.40;36.20
10231;DHT22;62604;49.432;8.680;2022-09-01T09:53:13;28.60;37.50
10231;DHT22;62604;49.432;8.680;2022-09-01T09:55:57;28.90;39.30
10231;DHT22;62604;49.432;8.680;2022-09-01T09:58:27;30.20;36.10
10231;DHT22;62604;49.432;8.680;2022-09-01T10:01:03;30.80;32.80
10231;DHT22;62604;49.432;8.680;2022-09-01T10:03:37;31.00;30.00
10231;DHT22;62604;49.432;8.680;2022-09-01T10:06:10;29.10;31.90
10231;DHT22;62604;49.432;8.680;2022-09-01T10:08:41;28.10;35.00
10231;DHT22;62604;49.432;8.680;2022-09-01T10:11:24;27.60;35.90
10231;DHT22;62604;49.432;8.680;2022-09-01T10:13:53;27.20;37.00
10231;DHT22;62604;49.432;8.680;2022-09-01T10:16:26;27.30;38.90
10231;DHT22;62604;49.432;8.680;2022-09-01T10:19:00;27.00;39.40
10231;DHT22;62604;49.432;8.680;2022-09-01T10:21:31;26.40;38.40
10231;DHT22;62604;49.432;8.680;2022-09-01T10:24:02;25.60;40.60
10231;DHT22;62604;49.432;8.680;2022-09-01T10:26:34;25.70;41.50
10231;DHT22;62604;49.432;8.680;2022-09-01T10:29:07;26.30;42.10
10231;DHT22;62604;49.432;8.680;2022-09-01T10:31:36;26.40;39.10
10231;DHT22;62604;49.432;8.680;2022-09-01T10:34:07;26.40;39.60
10231;DHT22;62604;49.432;8.680;2022-09-01T10:36:40;26.90;38.50
10231;DHT22;62604;49.432;8.680;2022-09-01T10:39:10;26.50;38.60
10231;DHT22;62604;49.432;8.680;2022-09-01T10:41:47;27.20;40.00
10231;DHT22;62604;49.432;8.680;2022-09-01T10:44:20;27.80;37.10
10231;DHT22;62604;49.432;8.680;2022-09-01T10:46:50;28.30;33.80
10231;DHT22;62604;49.432;8.680;2022-09-01T10:55:16;30.40;29.00
10231;DHT22;62604;49.432;8.680;2022-09-01T10:57:52;29.90;29.60
10231;DHT22;62604;49.432;8.680;2022-09-01T11:00:46;29.50;29.80
10231;DHT22;62604;49.432;8.680;2022-09-01T11:06:44;28.10;32.80
10231;DHT22;62604;49.432;8.680;2022-09-01T11:09:21;27.70;34.40
10231;DHT22;62604;49.432;8.680;2022-09-01T11:12:05;28.30;33.60
10231;DHT22;62604;49.432;8.680;2022-09-01T11:14:46;29.50;30.70
10231;DHT22;62604;49.432;8.680;2022-09-01T11:17:17;29.70;29.90
10231;DHT22;62604;49.432;8.680;2022-09-01T11:19:53;29.10;29.90
10231;DHT22;62604;49.432;8.680;2022-09-01T11:22:41;29.10;30.00
10231;DHT22;62604;49.432;8.680;2022-09-01T11:25:32;30.20;30.40
10231;DHT22;62604;49.432;8.680;2022-09-01T11:28:40;30.50;28.50
10231;DHT22;62604;49.432;8.680;2022-09-01T11:31:18;30.40;27.90
10231;DHT22;62604;49.432;8.680;2022-09-01T11:34:01;29.80;28.60
10231;DHT22;62604;49.432;8.680;2022-09-01T11:36:32;30.50;29.10
10231;DHT22;62604;49.432;8.680;2022-09-01T11:39:08;30.00;27.40
10231;DHT22;62604;49.432;8.680;2022-09-01T11:41:51;28.90;29.50
10231;DHT22;62604;49.432;8.680;2022-09-01T11:44:23;28.30;30.30
10231;DHT22;62604;49.432;8.680;2022-09-01T11:46:52;28.10;31.50
10231;DHT22;62604;49.432;8.680;2022-09-01T11:49:27;28.30;30.00
10231;DHT22;62604;49.432;8.680;2022-09-01T11:51:55;27.90;31.00
10231;DHT22;62604;49.432;8.680;2022-09-01T11:54:27;27.40;32.60
10231;DHT22;62604;49.432;8.680;2022-09-01T11:56:55;27.70;33.50
10231;DHT22;62604;49.432;8.680;2022-09-01T11:59:33;28.50;31.70
10231;DHT22;62604;49.432;8.680;2022-09-01T12:02:01;29.20;29.50
10231;DHT22;62604;49.432;8.680;2022-09-01T12:04:32;29.20;28.80
10231;DHT22;62604;49.432;8.680;2022-09-01T12:07:03;29.50;28.50
10231;DHT22;62604;49.432;8.680;2022-09-01T12:09:38;29.70;27.40
10231;DHT22;62604;49.432;8.680;2022-09-01T12:12:29;29.50;27.10
10231;DHT22;62604;49.432;8.680;2022-09-01T12:14:57;29.00;28.20
10231;DHT22;62604;49.432;8.680;2022-09-01T12:17:25;27.90;29.20
10231;DHT22;62604;49.432;8.680;2022-09-01T12:19:53;27.60;30.40
10231;DHT22;62604;49.432;8.680;2022-09-01T12:22:20;27.50;30.20
10231;DHT22;62604;49.432;8.680;2022-09-01T12:24:52;27.60;30.40
10231;DHT22;62604;49.432;8.680;2022-09-01T12:27:20;27.60;30.60
10231;DHT22;62604;49.432;8.680;2022-09-01T12:29:49;28.00;30.90
10231;DHT22;62604;49.432;8.680;2022-09-01T12:32:21;27.90;29.50
10231;DHT22;62604;49.432;8.680;2022-09-01T12:35:00;27.40;30.00
10231;DHT22;62604;49.432;8.680;2022-09-01T12:37:28;27.10;30.50
10231;DHT22;62604;49.432;8.680;2022-09-01T12:39:58;26.80;31.20
10231;DHT22;62604;49.432;8.680;2022-09-01T12:42:27;26.40;32.00
10231;DHT22;62604;49.432;8.680;2022-09-01T12:44:57;26.40;32.30
10231;DHT22;62604;49.432;8.680;2022-09-01T12:47:49;26.30;32.50
10231;DHT22;62604;49.432;8.680;2022-09-01T12:50:42;26.70;32.10
10231;DHT22;62604;49.432;8.680;2022-09-01T12:56:20;25.90;33.40
10231;DHT22;62604;49.432;8.680;2022-09-01T12:58:50;25.40;34.70
10231;DHT22;62604;49.432;8.680;2022-09-01T13:01:32;25.00;36.10
10231;DHT22;62604;49.432;8.680;2022-09-01T13:04:23;24.60;36.40
10231;DHT22;62604;49.432;8.680;2022-09-01T13:06:51;24.60;36.60
10231;DHT22;62604;49.432;8.680;2022-09-01T13:09:18;24.30;37.70
10231;DHT22;62604;49.432;8.680;2022-09-01T13:11:47;24.20;37.50
10231;DHT22;62604;49.432;8.680;2022-09-01T13:14:15;24.10;36.10
10231;DHT22;62604;49.432;8.680;2022-09-01T13:16:43;24.30;36.40
10231;DHT22;62604;49.432;8.680;2022-09-01T13:19:11;24.60;37.00
10231;DHT22;62604;49.432;8.680;2022-09-01T13:21:39;25.00;36.60
10231;DHT22;62604;49.432;8.680;2022-09-01T13:24:07;25.40;36.70
10231;DHT22;62604;49.432;8.680;2022-09-01T13:26:34;25.60;35.20
10231;DHT22;62604;49.432;8.680;2022-09-01T13:29:04;25.90;34.80
10231;DHT22;62604;49.432;8.680;2022-09-01T13:31:31;26.10;35.40
10231;DHT22;62604;49.432;8.680;2022-09-01T13:33:59;26.40;35.60
10231;DHT22;62604;49.432;8.680;2022-09-01T13:36:26;26.60;34.30
10231;DHT22;62604;49.432;8.680;2022-09-01T13:38:54;26.30;33.70
10231;DHT22;62604;49.432;8.680;2022-09-01T13:41:21;26.20;34.20
10231;DHT22;62604;49.432;8.680;2022-09-01T13:43:49;26.40;34.80
10231;DHT22;62604;49.432;8.680;2022-09-01T13:46:17;26.40;32.60
10231;DHT22;62604;49.432;8.680;2022-09-01T13:48:44;26.40;33.30
10231;DHT22;62604;49.432;8.680;2022-09-01T13:51:12;26.50;34.40
10231;DHT22;62604;49.432;8.680;2022-09-01T13:53:40;26.60;33.70
10231;DHT22;62604;49.432;8.680;2022-09-01T13:56:07;26.20;34.10
10231;DHT22;62604;49.432;8.680;2022-09-01T13:58:34;25.90;34.80
10231;DHT22;62604;49.432;8.680;2022-09-01T14:01:01;25.80;35.60
10231;DHT22;62604;49.432;8.680;2022-09-01T14:03:31;25.90;35.10
10231;DHT22;62604;49.432;8.680;2022-09-01T14:05:58;26.10;35.60
10231;DHT22;62604;49.432;8.680;2022-09-01T14:08:26;26.10;32.10
10231;DHT22;62604;49.432;8.680;2022-09-01T14:10:53;25.90;32.70
10231;DHT22;62604;49.432;8.680;2022-09-01T14:13:21;25.80;33.80
10231;DHT22;62604;49.432;8.680;2022-09-01T14:15:50;25.80;34.10
10231;DHT22;62604;49.432;8.680;2022-09-01T14:18:18;25.60;34.40
10231;DHT22;62604;49.432;8.680;2022-09-01T14:20:49;25.50;34.40
10231;DHT22;62604;49.432;8.680;2022-09-01T14:23:17;25.50;34.90
10231;DHT22;62604;49.432;8.680;2022-09-01T14:25:47;25.70;34.80
10231;DHT22;62604;49.432;8.680;2022-09-01T14:28:14;25.80;34.70
10231;DHT22;62604;49.432;8.680;2022-09-01T14:30:42;25.80;34.80
10231;DHT22;62604;49.432;8.680;2022-09-01T14:33:10;25.80;34.40
10231;DHT22;62604;49.432;8.680;2022-09-01T14:35:39;25.80;35.20
10231;DHT22;62604;49.432;8.680;2022-09-01T14:38:09;25.60;34.90
10231;DHT22;62604;49.432;8.680;2022-09-01T14:40:39;25.50;34.00
10231;DHT22;62604;49.432;8.680;2022-09-01T14:43:08;25.30;34.00
10231;DHT22;62604;49.432;8.680;2022-09-01T14:45:39;25.30;34.70
10231;DHT22;62604;49.432;8.680;2022-09-01T14:48:09;25.30;34.20
10231;DHT22;62604;49.432;8.680;2022-09-01T14:50:39;25.30;34.20
10231;DHT22;62604;49.432;8.680;2022-09-01T14:53:08;25.50;34.40
10231;DHT22;62604;49.432;8.680;2022-09-01T14:55:36;25.80;32.50
10231;DHT22;62604;49.432;8.680;2022-09-01T14:58:05;25.80;32.40
10231;DHT22;62604;49.432;8.680;2022-09-01T15:00:32;25.80;33.20
10231;DHT22;62604;49.432;8.680;2022-09-01T15:03:02;25.80;33.60
10231;DHT22;62604;49.432;8.680;2022-09-01T15:05:29;25.80;34.10
10231;DHT22;62604;49.432;8.680;2022-09-01T15:07:57;25.70;33.90
10231;DHT22;62604;49.432;8.680;2022-09-01T15:10:26;25.50;33.80
10231;DHT22;62604;49.432;8.680;2022-09-01T15:12:56;25.50;35.50
10231;DHT22;62604;49.432;8.680;2022-09-01T15:15:23;25.50;35.60
10231;DHT22;62604;49.432;8.680;2022-09-01T15:17:52;25.50;36.30
10231;DHT22;62604;49.432;8.680;2022-09-01T15:20:20;25.30;35.00
10231;DHT22;62604;49.432;8.680;2022-09-01T15:23:05;25.30;36.50
10231;DHT22;62604;49.432;8.680;2022-09-01T15:25:34;25.20;35.80
10231;DHT22;62604;49.432;8.680;2022-09-01T15:28:02;25.10;36.20
10231;DHT22;62604;49.432;8.680;2022-09-01T15:30:29;24.90;36.40
10231;DHT22;62604;49.432;8.680;2022-09-01T15:32:56;24.80;35.10
10231;DHT22;62604;49.432;8.680;2022-09-01T15:35:25;24.70;35.20
10231;DHT22;62604;49.432;8.680;2022-09-01T15:37:53;24.60;35.20
10231;DHT22;62604;49.432;8.680;2022-09-01T15:40:22;24.60;35.70
10231;DHT22;62604;49.432;8.680;2022-09-01T15:42:51;24.50;35.80
10231;DHT22;62604;49.432;8.680;2022-09-01T15:45:20;24.40;35.90
10231;DHT22;62604;49.432;8.680;2022-09-01T15:47:48;24.40;35.80
10231;DHT22;62604;49.432;8.680;2022-09-01T15:50:17;24.40;36.60
10231;DHT22;62604;49.432;8.680;2022-09-01T15:52:50;24.30;36.10
10231;DHT22;62604;49.432;8.680;2022-09-01T15:55:20;24.30;35.80
10231;DHT22;62604;49.432;8.680;2022-09-01T15:57:48;24.30;35.50
10231;DHT22;62604;49.432;8.680;2022-09-01T16:00:17;24.30;35.80
10231;DHT22;62604;49.432;8.680;2022-09-01T16:02:45;24.10;35.20
10231;DHT22;62604;49.432;8.680;2022-09-01T16:05:13;24.10;34.90